Time;durP1;ratioP1;P1;durP2;ratioP2;P2;SDS_P1;SDS_P2;PMS_P1;PMS_P2;Temp;Humidity;BMP_temperature;BMP_pressure;BME280_temperature;BME280_humidity;BME280_pressure;Samples;Min_cycle;Max_cycle;Signal;HPM_P1;HPM_P2
2022/09/26 00:00:07;;;;;;;8.50;6.70;;;;;;;-141.48;100.00;69781.59;5188593;28;20040;-73
2022/09/26 00:02:38;;;;;;;7.97;7.38;;;;;;;-141.48;100.00;69781.59;5187805;28;20504;-75
2022/09/26 00:05:10;;;;;;;8.32;7.35;;;;;;;-141.48;100.00;69781.59;5188105;28;20029;-73
2022/09/26 00:07:40;;;;;;;5.82;5.38;;;;;;;-141.48;100.00;69781.59;5188255;28;20497;-73
2022/09/26 00:10:10;;;;;;;6.45;5.95;;;;;;;-141.48;100.00;69781.59;5188563;28;20088;-72
2022/09/26 00:12:41;;;;;;;6.35;5.68;;;;;;;-141.48;100.00;69781.59;5188238;28;20026;-72
2022/09/26 00:15:11;;;;;;;8.95;7.03;;;;;;;-141.48;100.00;69781.59;5205965;28;20029;-73
2022/09/26 00:17:42;;;;;;;8.48;6.38;;;;;;;-141.48;100.00;69781.59;5188105;28;20496;-73
2022/09/26 00:20:12;;;;;;;6.32;5.82;;;;;;;-141.48;100.00;69781.59;5188073;28;20029;-73
2022/09/26 00:22:43;;;;;;;5.53;5.18;;;;;;;-141.48;100.00;69781.59;5188223;28;20440;-74
2022/09/26 00:25:14;;;;;;;5.55;5.15;;;;;;;-141.48;100.00;69781.59;5188007;28;20057;-72
2022/09/26 00:27:44;;;;;;;6.38;5.53;;;;;;;-141.48;100.00;69781.59;5188202;28;20021;-73
2022/09/26 00:30:15;;;;;;;6.25;5.55;;;;;;;-141.48;100.00;69781.59;5187116;28;20072;-73
2022/09/26 00:32:45;;;;;;;5.32;4.88;;;;;;;-141.48;100.00;69781.59;5188093;28;20401;-74
2022/09/26 00:35:16;;;;;;;6.78;6.18;;;;;;;-141.48;100.00;69781.59;5187979;28;20037;-74
2022/09/26 00:37:47;;;;;;;6.40;5.75;;;;;;;-141.48;100.00;69781.59;5187684;28;20116;-73
2022/09/26 00:40:18;;;;;;;5.85;5.45;;;;;;;-141.48;100.00;69781.59;5205608;28;20116;-72
2022/09/26 00:42:48;;;;;;;7.80;6.32;;;;;;;-141.48;100.00;69781.59;5188057;28;20116;-74
2022/09/26 00:45:18;;;;;;;5.25;4.90;;;;;;;-141.48;100.00;69781.59;5187618;28;20065;-73
2022/09/26 00:48:01;;;;;;;6.47;6.00;;;;;;;-141.48;100.00;69781.59;5188023;28;20029;-73
2022/09/26 00:50:36;;;;;;;6.70;5.78;;;;;;;-141.48;100.00;69781.59;5188082;28;20493;-73
2022/09/26 00:53:09;;;;;;;4.18;3.97;;;;;;;-141.48;100.00;69781.59;5188013;28;20033;-73
2022/09/26 00:56:10;;;;;;;9.07;5.40;;;;;;;-141.48;100.00;69781.59;5205196;28;20037;-72
2022/09/26 00:58:49;;;;;;;15.00;4.93;;;;;;;-141.48;100.00;69781.59;5181866;28;20037;-72
2022/09/26 01:01:20;;;;;;;4.40;4.10;;;;;;;-141.48;100.00;69781.59;5187675;28;20560;-73
2022/09/26 01:03:50;;;;;;;4.57;4.28;;;;;;;-141.48;100.00;69781.59;5187521;28;20432;-72
2022/09/26 01:06:21;;;;;;;6.20;5.75;;;;;;;-141.48;100.00;69781.59;5187679;28;20021;-72
2022/09/26 01:08:57;;;;;;;9.80;6.20;;;;;;;-141.48;100.00;69781.59;5188036;28;20041;-73
2022/09/26 01:11:28;;;;;;;7.53;5.05;;;;;;;-141.48;100.00;69781.59;5187609;28;20024;-73
2022/09/26 01:13:59;;;;;;;4.60;4.22;;;;;;;-141.48;100.00;69781.59;5189625;28;20079;-72
2022/09/26 01:16:30;;;;;;;5.22;4.72;;;;;;;-141.48;100.00;69781.59;5191939;28;20106;-72
2022/09/26 01:19:05;;;;;;;8.32;5.05;;;;;;;-141.48;100.00;69781.59;5191743;28;20108;-73
2022/09/26 01:21:50;;;;;;;5.55;5.13;;;;;;;-141.48;100.00;69781.59;5209159;28;20055;-72
2022/09/26 01:24:23;;;;;;;5.15;4.80;;;;;;;-141.48;100.00;69781.59;5191250;28;20512;-73
2022/09/26 01:27:03;;;;;;;5.22;4.82;;;;;;;-141.48;100.00;69781.59;5191298;28;20393;-73
2022/09/26 01:30:04;;;;;;;5.47;5.03;;;;;;;-141.48;100.00;69781.59;5209204;28;20034;-72
2022/09/26 01:32:59;;;;;;;5.07;4.68;;;;;;;-141.48;100.00;69781.59;5208592;28;20072;-72
2022/09/26 01:35:44;;;;;;;6.20;5.70;;;;;;;-141.48;100.00;69781.59;5208982;28;20546;-72
2022/09/26 01:38:34;;;;;;;5.00;4.60;;;;;;;-141.48;100.00;69781.59;5191663;28;20025;-74
2022/09/26 01:41:31;;;;;;;9.23;6.15;;;;;;;-141.48;100.00;69781.59;5191330;28;20485;-72
2022/09/26 01:44:26;;;;;;;5.85;5.47;;;;;;;-141.48;100.00;69781.59;5190848;28;20076;-73
2022/09/26 01:47:27;;;;;;;4.75;4.47;;;;;;;-141.48;100.00;69781.59;5191397;28;20024;-72
2022/09/26 01:50:14;;;;;;;5.40;4.30;;;;;;;-141.48;100.00;69781.59;5191139;28;20101;-73
2022/09/26 01:52:51;;;;;;;5.88;4.88;;;;;;;-141.48;100.00;69781.59;5191047;28;20393;-73
2022/09/26 01:55:29;;;;;;;6.78;5.05;;;;;;;-141.48;100.00;69781.59;5190685;28;20478;-72
2022/09/26 01:58:37;;;;;;;17.98;6.22;;;;;;;-141.48;100.00;69781.59;5190525;28;20087;-75
2022/09/26 02:01:12;;;;;;;4.82;4.47;;;;;;;-141.48;100.00;69781.59;5190858;28;20405;-75
2022/09/26 02:03:50;;;;;;;5.85;5.38;;;;;;;-141.48;100.00;69781.59;5190836;28;20111;-73
2022/09/26 02:06:32;;;;;;;5.28;4.82;;;;;;;-141.48;100.00;69781.59;5191080;28;20065;-75
2022/09/26 02:09:09;;;;;;;6.95;5.43;;;;;;;-141.48;100.00;69781.59;5190482;28;20370;-74
2022/09/26 02:11:44;;;;;;;9.38;6.20;;;;;;;-141.48;100.00;69781.59;5189660;28;20022;-76
2022/09/26 02:14:24;;;;;;;11.45;4.65;;;;;;;-141.48;100.00;69781.59;5190455;28;20025;-73
2022/09/26 02:17:00;;;;;;;3.88;3.70;;;;;;;-141.48;100.00;69781.59;5190321;28;20025;-73
2022/09/26 02:19:55;;;;;;;4.95;3.55;;;;;;;-141.48;100.00;69781.59;5190431;28;20076;-73
2022/09/26 02:22:30;;;;;;;7.90;3.83;;;;;;;-141.48;100.00;69781.59;5190433;28;20529;-74
2022/09/26 02:25:03;;;;;;;5.63;5.10;;;;;;;-141.48;100.00;69781.59;5188548;28;20025;-73
2022/09/26 02:27:34;;;;;;;4.95;4.55;;;;;;;-141.48;100.00;69781.59;5208288;28;20661;-73
2022/09/26 02:30:05;;;;;;;3.97;3.78;;;;;;;-141.48;100.00;69781.59;5190159;28;20025;-73
2022/09/26 02:32:37;;;;;;;6.15;4.70;;;;;;;-141.48;100.00;69781.59;5190410;28;20036;-74
2022/09/26 02:37:58;;;;;;;5.40;3.90;;;;;;;-141.48;100.00;69781.59;5208358;28;20030;-73
2022/09/26 02:40:41;;;;;;;4.25;4.05;;;;;;;-141.48;100.00;69781.59;5190184;28;20025;-74
2022/09/26 02:43:31;;;;;;;4.60;4.25;;;;;;;-141.48;100.00;69781.59;5190296;28;20032;-72
2022/09/26 02:46:07;;;;;;;;;;;;;;;-141.48;100.00;69781.59;5190346;28;20167;-74
2022/09/26 02:48:53;;;;;;;5.50;4.65;;;;;;;-141.48;100.00;69781.59;5207410;28;19920;-73
2022/09/26 02:51:48;;;;;;;4.65;4.20;;;;;;;-141.48;100.00;69781.59;5189998;28;20401;-73
2022/09/26 02:54:41;;;;;;;6.88;6.13;;;;;;;-141.48;100.00;69781.59;5188984;28;20036;-73
2022/09/26 02:57:44;;;;;;;7.60;7.00;;;;;;;-141.48;100.00;69781.59;5189917;28;20551;-73
2022/09/26 03:00:30;;;;;;;5.70;5.30;;;;;;;-141.48;100.00;69781.59;5207734;28;20029;-72
2022/09/26 03:03:23;;;;;;;6.20;5.25;;;;;;;-141.48;100.00;69781.59;5187352;28;20029;-73
2022/09/26 03:05:57;;;;;;;7.85;5.47;;;;;;;-141.48;100.00;69781.59;5189621;28;20055;-72
2022/09/26 03:08:37;;;;;;;4.55;3.60;;;;;;;-141.48;100.00;69781.59;5189324;28;20406;-72
2022/09/26 03:11:10;;;;;;;3.53;3.30;;;;;;;-141.48;100.00;69781.59;5189026;28;20113;-73
2022/09/26 03:13:42;;;;;;;6.43;4.47;;;;;;;-141.48;100.00;69781.59;5189109;28;20021;-72
2022/09/26 03:16:13;;;;;;;7.05;3.75;;;;;;;-141.48;100.00;69781.59;5189526;28;20371;-72
2022/09/26 03:19:30;;;;;;;7.57;4.05;;;;;;;-141.48;100.00;69781.59;5188759;28;20036;-72
2022/09/26 03:22:01;;;;;;;4.47;3.35;;;;;;;-141.48;100.00;69781.59;5143682;28;20106;-73
2022/09/26 03:24:35;;;;;;;6.35;3.85;;;;;;;-141.48;100.00;69781.59;5178934;28;20125;-73
2022/09/26 03:27:06;;;;;;;4.25;3.90;;;;;;;-141.48;100.00;69781.59;5189215;28;20482;-73
2022/09/26 03:29:37;;;;;;;6.57;4.28;;;;;;;-141.48;100.00;69781.59;5189393;28;20033;-75
2022/09/26 03:32:08;;;;;;;9.18;8.27;;;;;;;-141.48;100.00;69781.59;5189138;28;20421;-72
2022/09/26 03:34:39;;;;;;;27.23;20.63;;;;;;;-141.48;100.00;69781.59;5206400;28;20025;-72
2022/09/26 03:37:10;;;;;;;23.08;20.35;;;;;;;-141.48;100.00;69781.59;5188533;28;20029;-73
2022/09/26 03:39:40;;;;;;;17.23;14.98;;;;;;;-141.48;100.00;69781.59;5188848;28;20029;-72
2022/09/26 03:42:13;;;;;;;10.35;9.35;;;;;;;-141.48;100.00;69781.59;5188894;28;20044;-73
2022/09/26 03:44:43;;;;;;;13.27;7.75;;;;;;;-141.48;100.00;69781.59;5188748;28;20108;-74
2022/09/26 03:47:16;;;;;;;5.75;5.30;;;;;;;-141.48;100.00;69781.59;5189024;28;20116;-74
2022/09/26 03:49:47;;;;;;;6.05;4.78;;;;;;;-141.48;100.00;69781.59;5188653;28;20112;-75
2022/09/26 03:52:17;;;;;;;4.45;4.05;;;;;;;-141.48;100.00;69781.59;5188249;28;20599;-75
2022/09/26 03:54:48;;;;;;;6.82;5.03;;;;;;;-141.48;100.00;69781.59;5188112;28;20405;-76
2022/09/26 03:57:19;;;;;;;5.43;5.13;;;;;;;-141.48;100.00;69781.59;5188705;28;20116;-75
2022/09/26 03:59:50;;;;;;;4.15;3.88;;;;;;;-141.48;100.00;69781.59;5189113;28;20053;-75
2022/09/26 04:02:21;;;;;;;4.28;3.88;;;;;;;-141.48;100.00;69781.59;5188778;28;20067;-75
2022/09/26 04:04:51;;;;;;;4.63;3.33;;;;;;;-141.48;100.00;69781.59;5188485;28;20409;-75
2022/09/26 04:07:22;;;;;;;13.48;5.10;;;;;;;-141.48;100.00;69781.59;5188569;28;20029;-74
2022/09/26 04:09:52;;;;;;;5.80;4.75;;;;;;;-141.48;100.00;69781.59;5188267;28;20025;-75
2022/09/26 04:12:23;;;;;;;4.25;4.05;;;;;;;-141.48;100.00;69781.59;5188388;28;20068;-74
2022/09/26 04:14:54;;;;;;;4.18;3.63;;;;;;;-141.48;100.00;69781.59;5187990;28;20489;-74
2022/09/26 04:17:24;;;;;;;5.63;4.80;;;;;;;-141.48;100.00;69781.59;5188478;28;20104;-74
2022/09/26 04:19:54;;;;;;;5.07;3.70;;;;;;;-141.48;100.00;69781.59;5187833;28;20033;-74
2022/09/26 04:22:26;;;;;;;3.22;3.03;;;;;;;-141.48;100.00;69781.59;5215599;22;20261;-67
2022/09/26 04:24:56;;;;;;;5.00;3.78;;;;;;;-141.48;100.00;69781.59;5225391;28;20111;-70
2022/09/26 04:27:33;;;;;;;4.32;3.95;;;;;;;-141.48;100.00;69781.59;5225878;28;20124;-67
2022/09/26 04:30:04;;;;;;;4.22;3.88;;;;;;;-141.48;100.00;69781.59;5244237;28;20077;-67
2022/09/26 04:32:34;;;;;;;4.43;3.72;;;;;;;-141.48;100.00;69781.59;5226113;28;20028;-71
2022/09/26 04:35:05;;;;;;;4.47;4.07;;;;;;;-141.48;100.00;69781.59;5243421;28;20032;-69
2022/09/26 04:37:36;;;;;;;4.15;3.80;;;;;;;-141.48;100.00;69781.59;5225986;28;20029;-67
2022/09/26 04:40:08;;;;;;;9.05;4.45;;;;;;;-141.48;100.00;69781.59;5225823;28;20024;-67
2022/09/26 04:42:40;;;;;;;5.32;4.15;;;;;;;-141.48;100.00;69781.59;5243569;28;20028;-66
2022/09/26 04:45:10;;;;;;;5.07;4.53;;;;;;;-141.48;100.00;69781.59;5225382;28;20039;-67
2022/09/26 04:47:41;;;;;;;13.50;4.93;;;;;;;-141.48;100.00;69781.59;5225440;28;20025;-66
2022/09/26 04:50:11;;;;;;;14.07;5.55;;;;;;;-141.48;100.00;69781.59;5225637;28;20033;-67
2022/09/26 04:52:42;;;;;;;12.43;6.43;;;;;;;-141.48;100.00;69781.59;5244778;28;20032;-69
2022/09/26 04:55:12;;;;;;;7.35;6.57;;;;;;;-141.48;100.00;69781.59;5225254;28;20028;-66
2022/09/26 04:57:42;;;;;;;8.40;6.90;;;;;;;-141.48;100.00;69781.59;5226465;28;20500;-64
2022/09/26 05:00:13;;;;;;;12.15;6.93;;;;;;;-141.48;100.00;69781.59;5226000;28;20025;-66
2022/09/26 05:02:47;;;;;;;10.00;5.82;;;;;;;-141.48;100.00;69781.59;5204189;28;20029;-66
2022/09/26 05:05:21;;;;;;;8.77;6.40;;;;;;;-141.48;100.00;69781.59;5204008;28;20134;-66
2022/09/26 05:07:52;;;;;;;7.47;6.28;;;;;;;-141.48;100.00;69781.59;5204977;28;20250;-65
2022/09/26 05:10:22;;;;;;;17.60;6.72;;;;;;;-141.48;100.00;69781.59;5205558;28;20219;-67
2022/09/26 05:12:53;;;;;;;9.00;6.10;;;;;;;-141.48;100.00;69781.59;5205148;28;20477;-66
2022/09/26 05:15:24;;;;;;;10.00;7.00;;;;;;;-141.48;100.00;69781.59;5204576;28;20021;-66
2022/09/26 05:17:56;;;;;;;14.98;6.55;;;;;;;-141.48;100.00;69781.59;5204907;28;20032;-67
2022/09/26 05:20:28;;;;;;;6.47;5.47;;;;;;;-141.48;100.00;69781.59;5204704;28;20056;-66
2022/09/26 05:22:59;;;;;;;9.07;5.78;;;;;;;-141.48;100.00;69781.59;5204401;28;20028;-66
2022/09/26 05:26:22;;;;;;;11.05;5.57;;;;;;;-141.48;100.00;69781.59;5204740;28;20021;-67
2022/09/26 05:28:27;;;;;;;9.13;6.03;;;;;;;-141.48;100.00;69781.59;5210433;28;20032;-67
2022/09/26 05:30:58;;;;;;;5.20;4.63;;;;;;;-141.48;100.00;69781.59;5202348;28;20469;-68
2022/09/26 05:33:28;;;;;;;5.30;4.95;;;;;;;-141.48;100.00;69781.59;5203869;28;20024;-66
2022/09/26 05:35:59;;;;;;;6.68;3.58;;;;;;;-141.48;100.00;69781.59;5204871;28;20050;-67
2022/09/26 05:38:29;;;;;;;5.20;4.80;;;;;;;-141.48;100.00;69781.59;5204862;28;20116;-66
2022/09/26 05:41:00;;;;;;;6.30;4.00;;;;;;;-141.48;100.00;69781.59;5204704;28;20031;-66
2022/09/26 05:43:32;;;;;;;4.78;4.22;;;;;;;-141.48;100.00;69781.59;5204232;28;20029;-70
2022/09/26 05:46:04;;;;;;;5.53;5.03;;;;;;;-141.48;100.00;69781.59;5204548;28;20029;-69
2022/09/26 05:48:37;;;;;;;10.13;4.32;;;;;;;-141.48;100.00;69781.59;5202942;28;20025;-67
2022/09/26 05:51:10;;;;;;;5.10;4.60;;;;;;;-141.48;100.00;69781.59;5204674;28;20017;-67
2022/09/26 05:53:43;;;;;;;4.85;4.40;;;;;;;-141.48;100.00;69781.59;5203943;28;20040;-70
2022/09/26 05:56:16;;;;;;;7.57;4.43;;;;;;;-141.48;100.00;69781.59;5204624;28;20485;-67
2022/09/26 05:58:47;;;;;;;4.20;3.95;;;;;;;-141.48;100.00;69781.59;5204496;28;20128;-67
2022/09/26 06:01:18;;;;;;;8.57;5.35;;;;;;;-141.48;100.00;69781.59;5207047;28;20420;-69
2022/09/26 06:03:48;;;;;;;4.93;4.53;;;;;;;-141.48;100.00;69781.59;5207542;28;20461;-67
2022/09/26 06:06:19;;;;;;;7.97;4.88;;;;;;;-141.48;100.00;69781.59;5208102;28;20126;-66
2022/09/26 06:08:50;;;;;;;4.82;4.50;;;;;;;-141.48;100.00;69781.59;5207903;28;20039;-67
2022/09/26 06:11:23;;;;;;;3.83;3.53;;;;;;;-141.48;100.00;69781.59;5207935;28;20036;-67
2022/09/26 06:13:54;;;;;;;4.15;3.80;;;;;;;-141.48;100.00;69781.59;5225844;28;20082;-68
2022/09/26 06:16:25;;;;;;;3.63;3.42;;;;;;;-141.48;100.00;69781.59;5207778;28;20047;-68
2022/09/26 06:18:56;;;;;;;3.72;3.25;;;;;;;-141.48;100.00;69781.59;5207783;28;20139;-68
2022/09/26 06:21:26;;;;;;;6.75;4.57;;;;;;;-141.48;100.00;69781.59;5207663;28;20029;-67
2022/09/26 06:23:57;;;;;;;4.00;3.72;;;;;;;-141.48;100.00;69781.59;5207720;28;20028;-68
2022/09/26 06:26:27;;;;;;;3.65;3.35;;;;;;;-141.48;100.00;69781.59;5207684;28;20027;-68
2022/09/26 06:29:01;;;;;;;5.03;3.60;;;;;;;-141.48;100.00;69781.59;5207120;28;20028;-68
2022/09/26 06:31:31;;;;;;;4.88;3.90;;;;;;;-141.48;100.00;69781.59;5207379;28;20053;-67
2022/09/26 06:34:02;;;;;;;3.53;3.28;;;;;;;-141.48;100.00;69781.59;5207190;28;20130;-67
2022/09/26 06:36:32;;;;;;;5.72;3.63;;;;;;;-141.48;100.00;69781.59;5207261;28;20040;-67
2022/09/26 06:39:03;;;;;;;6.38;3.05;;;;;;;-141.48;100.00;69781.59;5207325;28;20119;-67
2022/09/26 06:41:34;;;;;;;6.75;3.85;;;;;;;-141.48;100.00;69781.59;5207192;28;20182;-66
2022/09/26 06:44:04;;;;;;;3.67;3.47;;;;;;;-141.48;100.00;69781.59;5207006;28;20028;-67
2022/09/26 06:46:35;;;;;;;3.58;3.38;;;;;;;-141.48;100.00;69781.59;5207262;28;20122;-67
2022/09/26 06:49:05;;;;;;;6.13;4.65;;;;;;;-141.48;100.00;69781.59;5206913;28;20036;-67
2022/09/26 06:51:36;;;;;;;4.05;3.35;;;;;;;-141.48;100.00;69781.59;5190599;28;20040;-67
2022/09/26 06:54:07;;;;;;;3.35;3.05;;;;;;;-141.48;100.00;69781.59;5206803;28;20104;-68
2022/09/26 06:56:37;;;;;;;5.18;3.38;;;;;;;-141.48;100.00;69781.59;5207234;28;20156;-67
2022/09/26 06:59:08;;;;;;;5.22;2.90;;;;;;;-141.48;100.00;69781.59;5206953;28;20017;-67
2022/09/26 07:01:38;;;;;;;3.75;3.53;;;;;;;-141.48;100.00;69781.59;5206764;28;20051;-67
2022/09/26 07:04:08;;;;;;;5.15;4.22;;;;;;;-141.48;100.00;69781.59;5206509;28;20033;-65
2022/09/26 07:06:39;;;;;;;5.55;2.83;;;;;;;-141.48;100.00;69781.59;5207201;28;20128;-66
2022/09/26 07:09:09;;;;;;;3.78;3.53;;;;;;;-141.48;100.00;69781.59;5224668;28;20071;-67
2022/09/26 07:11:46;;;;;;;8.98;3.50;;;;;;;-141.48;100.00;69781.59;5206609;28;20027;-66
2022/09/26 07:14:17;;;;;;;4.32;4.00;;;;;;;-141.48;100.00;69781.59;5206372;28;20029;-67
2022/09/26 07:16:49;;;;;;;2.78;2.58;;;;;;;-141.48;100.00;69781.59;5206460;28;20442;-64
2022/09/26 07:19:20;;;;;;;2.45;2.35;;;;;;;-141.48;100.00;69781.59;5206473;28;20145;-66
2022/09/26 07:21:50;;;;;;;6.88;3.95;;;;;;;-141.48;100.00;69781.59;5224372;28;20108;-66
2022/09/26 07:24:21;;;;;;;8.57;3.70;;;;;;;-141.48;100.00;69781.59;5206468;28;20294;-66
2022/09/26 07:26:51;;;;;;;4.55;3.38;;;;;;;-141.48;100.00;69781.59;5224816;28;20031;-66
2022/09/26 07:29:22;;;;;;;3.53;3.22;;;;;;;-141.48;100.00;69781.59;5206105;28;20127;-67
2022/09/26 07:31:52;;;;;;;5.07;3.53;;;;;;;-141.48;100.00;69781.59;5206398;28;20094;-66
2022/09/26 07:34:23;;;;;;;4.13;3.35;;;;;;;-141.48;100.00;69781.59;5205944;28;20028;-66
2022/09/26 07:36:54;;;;;;;3.88;3.67;;;;;;;-141.48;100.00;69781.59;5206801;28;20064;-67
2022/09/26 07:39:25;;;;;;;4.13;3.83;;;;;;;-141.48;100.00;69781.59;5206163;28;20020;-67
2022/09/26 07:41:55;;;;;;;3.50;3.25;;;;;;;-141.48;100.00;69781.59;5205986;28;20465;-67
2022/09/26 07:44:26;;;;;;;3.15;2.95;;;;;;;-141.48;100.00;69781.59;5205868;28;20478;-65
2022/09/26 07:52:34;;;;;;;4.63;3.55;;;;;;;-141.48;100.00;69781.59;5224384;28;20040;-65
2022/09/26 07:55:06;;;;;;;3.33;2.90;;;;;;;-141.48;100.00;69781.59;5205546;28;20027;-65
2022/09/26 07:57:37;;;;;;;4.40;3.65;;;;;;;-141.48;100.00;69781.59;5205718;28;20017;-65
2022/09/26 08:00:11;;;;;;;3.22;3.00;;;;;;;-141.48;100.00;69781.59;5223500;28;20032;-65
2022/09/26 08:02:45;;;;;;;3.80;3.60;;;;;;;-141.48;100.00;69781.59;5205419;28;20033;-67
2022/09/26 08:05:18;;;;;;;5.40;3.90;;;;;;;-141.48;100.00;69781.59;5205264;28;20024;-64
2022/09/26 08:07:49;;;;;;;3.95;3.28;;;;;;;-141.48;100.00;69781.59;5205644;28;20029;-65
2022/09/26 08:10:22;;;;;;;6.95;4.07;;;;;;;-141.48;100.00;69781.59;5205611;28;20260;-65
2022/09/26 08:12:53;;;;;;;3.40;3.20;;;;;;;-141.48;100.00;69781.59;5205498;28;20025;-65
2022/09/26 08:15:24;;;;;;;3.72;3.50;;;;;;;-141.48;100.00;69781.59;5205575;28;20469;-64
2022/09/26 08:17:54;;;;;;;5.03;3.17;;;;;;;-141.48;100.00;69781.59;5205802;28;20033;-65
2022/09/26 08:20:25;;;;;;;4.57;3.60;;;;;;;-141.48;100.00;69781.59;5205379;28;20361;-66
2022/09/26 08:22:55;;;;;;;11.07;4.25;;;;;;;-141.48;100.00;69781.59;5204651;28;20369;-64
2022/09/26 08:25:26;;;;;;;3.45;3.25;;;;;;;-141.48;100.00;69781.59;5222928;28;20091;-65
2022/09/26 08:27:58;;;;;;;4.15;3.80;;;;;;;-141.48;100.00;69781.59;5205241;28;20025;-66
2022/09/26 08:30:30;;;;;;;3.65;3.45;;;;;;;-141.48;100.00;69781.59;5205147;28;20047;-63
2022/09/26 08:33:00;;;;;;;2.78;2.58;;;;;;;-141.48;100.00;69781.59;5205265;28;20496;-64
2022/09/26 08:35:37;;;;;;;3.55;3.35;;;;;;;-141.48;100.00;69781.59;5205023;28;20221;-67
2022/09/26 08:38:08;;;;;;;5.38;3.33;;;;;;;-141.48;100.00;69781.59;5205342;28;20508;-65
2022/09/26 08:44:33;;;;;;;5.20;3.97;;;;;;;-141.48;100.00;69781.59;5224222;28;20040;-66
2022/09/26 08:47:20;;;;;;;3.72;3.45;;;;;;;-141.48;100.00;69781.59;5206242;28;20120;-66
2022/09/26 08:50:06;;;;;;;3.38;3.08;;;;;;;-141.48;100.00;69781.59;5206042;28;20068;-68
2022/09/26 08:53:15;;;;;;;4.57;3.88;;;;;;;-141.48;100.00;69781.59;5205969;28;20021;-69
2022/09/26 08:55:47;;;;;;;3.33;3.03;;;;;;;-141.48;100.00;69781.59;5124058;28;20031;-69
2022/09/26 08:58:25;;;;;;;5.50;4.30;;;;;;;-141.48;100.00;69781.59;5194713;28;20477;-68
2022/09/26 09:01:01;;;;;;;7.97;2.97;;;;;;;-141.48;100.00;69781.59;5206392;28;20055;-67
2022/09/26 09:03:47;;;;;;;3.35;3.08;;;;;;;-141.48;100.00;69781.59;5207009;28;20040;-66
2022/09/26 09:06:18;;;;;;;4.47;2.80;;;;;;;-141.48;100.00;69781.59;5207513;28;20465;-66
2022/09/26 09:08:55;;;;;;;4.30;3.92;;;;;;;-141.48;100.00;69781.59;5206614;28;20021;-65
2022/09/26 09:11:55;;;;;;;6.43;3.95;;;;;;;-141.48;100.00;69781.59;5207045;28;20087;-65
2022/09/26 09:14:31;;;;;;;4.47;3.60;;;;;;;-141.48;100.00;69781.59;5197518;28;20512;-64
2022/09/26 09:17:20;;;;;;;9.38;6.05;;;;;;;-141.48;100.00;69781.59;5206302;28;20042;-63
2022/09/26 09:20:00;;;;;;;5.72;4.00;;;;;;;-141.48;100.00;69781.59;5206526;28;20393;-66
2022/09/26 09:22:49;;;;;;;2.50;2.40;;;;;;;-141.48;100.00;69781.59;5206505;28;20515;-66
2022/09/26 09:25:23;;;;;;;4.15;3.70;;;;;;;-141.48;100.00;69781.59;5205774;28;20021;-63
2022/09/26 09:28:14;;;;;;;4.18;3.85;;;;;;;-141.48;100.00;69781.59;5205980;28;20354;-64
2022/09/26 09:30:50;;;;;;;3.20;3.00;;;;;;;-141.48;100.00;69781.59;5206163;28;20452;-64
2022/09/26 09:33:26;;;;;;;5.13;3.45;;;;;;;-141.48;100.00;69781.59;5205992;28;20396;-65
2022/09/26 09:36:09;;;;;;;3.97;3.65;;;;;;;-141.48;100.00;69781.59;5209650;28;20107;-63
2022/09/26 09:38:46;;;;;;;4.35;4.15;;;;;;;-141.48;100.00;69781.59;5209809;28;20111;-64
2022/09/26 09:41:29;;;;;;;4.57;4.22;;;;;;;-141.48;100.00;69781.59;5209783;28;20021;-64
2022/09/26 09:44:04;;;;;;;6.35;3.67;;;;;;;-141.48;100.00;69781.59;5209674;28;20106;-64
2022/09/26 09:46:41;;;;;;;4.40;4.10;;;;;;;-141.48;100.00;69781.59;5209629;28;20040;-63
2022/09/26 09:49:23;;;;;;;8.13;5.30;;;;;;;-141.48;100.00;69781.59;5209448;28;20036;-65
2022/09/26 09:52:29;;;;;;;6.70;4.20;;;;;;;-141.48;100.00;69781.59;5209697;28;20435;-65
2022/09/26 09:55:24;;;;;;;9.10;4.45;;;;;;;-141.48;100.00;69781.59;5209199;28;20094;-64
2022/09/26 09:58:45;;;;;;;8.15;4.45;;;;;;;-141.48;100.00;69781.59;5209568;28;20025;-64
2022/09/26 10:01:31;;;;;;;5.88;3.88;;;;;;;-141.48;100.00;69781.59;5127467;28;20544;-64
2022/09/26 10:04:10;;;;;;;4.57;4.15;;;;;;;-141.48;100.00;69781.59;5127220;28;20117;-64
2022/09/26 10:06:41;;;;;;;3.83;3.63;;;;;;;-141.48;100.00;69781.59;5191115;28;20033;-64
2022/09/26 10:09:18;;;;;;;5.78;4.43;;;;;;;-141.48;100.00;69781.59;5209359;28;20027;-63
2022/09/26 10:11:48;;;;;;;9.57;4.55;;;;;;;-141.48;100.00;69781.59;5209548;28;20033;-65
2022/09/26 10:14:35;;;;;;;8.57;4.78;;;;;;;-141.48;100.00;69781.59;5209275;28;20035;-65
2022/09/26 10:17:08;;;;;;;3.72;3.42;;;;;;;-141.48;100.00;69781.59;5209541;28;20029;-65
2022/09/26 10:19:41;;;;;;;6.43;3.90;;;;;;;-141.48;100.00;69781.59;5209404;28;20340;-65
2022/09/26 10:22:25;;;;;;;3.47;3.28;;;;;;;-141.48;100.00;69781.59;5224817;22;20466;-67
2022/09/26 10:25:07;;;;;;;3.78;3.47;;;;;;;-141.48;100.00;69781.59;5218305;28;20088;-68
2022/09/26 10:27:40;;;;;;;4.13;3.78;;;;;;;-141.48;100.00;69781.59;5207039;28;20026;-66
2022/09/26 10:30:17;;;;;;;4.90;4.47;;;;;;;-141.48;100.00;69781.59;5203193;28;20490;-67
2022/09/26 10:32:50;;;;;;;4.38;3.55;;;;;;;-141.48;100.00;69781.59;5186353;28;20406;-67
2022/09/26 10:35:24;;;;;;;4.57;4.18;;;;;;;-141.48;100.00;69781.59;5202748;28;20030;-66
2022/09/26 10:37:59;;;;;;;8.27;5.00;;;;;;;-141.48;100.00;69781.59;5186619;28;20021;-67
2022/09/26 10:40:46;;;;;;;6.22;4.82;;;;;;;-141.48;100.00;69781.59;5186558;28;20426;-66
2022/09/26 10:43:33;;;;;;;2.92;2.78;;;;;;;-141.48;100.00;69781.59;5202456;28;20449;-66
2022/09/26 10:46:09;;;;;;;4.05;3.75;;;;;;;-141.48;100.00;69781.59;5185552;28;20394;-66
2022/09/26 10:48:46;;;;;;;4.63;4.25;;;;;;;-141.48;100.00;69781.59;5186311;28;20022;-67
2022/09/26 10:51:24;;;;;;;7.68;4.63;;;;;;;-141.48;100.00;69781.59;5186266;28;20034;-67
2022/09/26 10:54:03;;;;;;;7.03;3.97;;;;;;;-141.48;100.00;69781.59;5185956;28;20532;-71
2022/09/26 10:56:47;;;;;;;4.45;4.00;;;;;;;-141.48;100.00;69781.59;5186246;28;20025;-66
2022/09/26 10:59:23;;;;;;;3.58;3.38;;;;;;;-141.48;100.00;69781.59;5202596;28;20018;-66
2022/09/26 11:01:57;;;;;;;7.30;3.75;;;;;;;-141.48;100.00;69781.59;5186239;28;20448;-67
2022/09/26 11:07:24;;;;;;;4.05;3.75;;;;;;;-141.48;100.00;69781.59;5187809;28;20068;-67
2022/09/26 11:10:01;;;;;;;3.25;3.05;;;;;;;-141.48;100.00;69781.59;5186084;28;20018;-67
2022/09/26 11:12:38;;;;;;;9.73;4.22;;;;;;;-141.48;100.00;69781.59;5186004;28;20065;-68
2022/09/26 11:15:13;;;;;;;3.42;3.22;;;;;;;-141.48;100.00;69781.59;5186383;28;20022;-66
2022/09/26 11:17:46;;;;;;;11.70;4.88;;;;;;;-141.48;100.00;69781.59;5202623;28;20029;-68
2022/09/26 11:20:36;;;;;;;9.45;5.45;;;;;;;-141.48;100.00;69781.59;5186049;28;20401;-68
2022/09/26 11:23:36;;;;;;;5.93;5.35;;;;;;;-141.48;100.00;69781.59;5185790;28;20052;-67
2022/09/26 11:26:26;;;;;;;5.70;4.45;;;;;;;-141.48;100.00;69781.59;5167312;28;20129;-68
2022/09/26 11:29:12;;;;;;;4.78;4.32;;;;;;;-141.48;100.00;69781.59;5185439;28;20114;-68
2022/09/26 11:31:44;;;;;;;8.82;4.65;;;;;;;-141.48;100.00;69781.59;5185238;28;20030;-67
2022/09/26 11:34:28;;;;;;;3.88;3.67;;;;;;;-141.48;100.00;69781.59;5185009;28;20037;-67
2022/09/26 11:37:30;;;;;;;5.65;4.65;;;;;;;-141.48;100.00;69781.59;5201538;28;20137;-67
2022/09/26 11:40:16;;;;;;;5.15;4.60;;;;;;;-141.48;100.00;69781.59;5201419;28;20065;-68
2022/09/26 11:43:16;;;;;;;3.45;3.15;;;;;;;-141.48;100.00;69781.59;5186385;28;20036;-68
2022/09/26 11:46:06;;;;;;;4.13;3.65;;;;;;;-141.48;100.00;69781.59;5184482;28;20029;-67
2022/09/26 11:48:48;;;;;;;4.75;4.35;;;;;;;-141.48;100.00;69781.59;5186063;28;20552;-67
2022/09/26 11:51:25;;;;;;;5.30;4.18;;;;;;;-141.48;100.00;69781.59;5184573;28;20037;-67
2022/09/26 11:54:23;;;;;;;3.40;3.10;;;;;;;-141.48;100.00;69781.59;5184185;28;20053;-66
2022/09/26 11:57:03;;;;;;;5.70;3.70;;;;;;;-141.48;100.00;69781.59;5184201;28;20033;-67
2022/09/26 11:59:49;;;;;;;4.05;3.05;;;;;;;-141.48;100.00;69781.59;5184262;28;20017;-67
2022/09/26 12:02:38;;;;;;;3.25;3.10;;;;;;;-141.48;100.00;69781.59;5186325;28;20034;-67
2022/09/26 12:05:24;;;;;;;4.38;3.80;;;;;;;-141.48;100.00;69781.59;5184403;28;20029;-67